| time (UTC) | temp F | wind direction | speed knots | gust knots | rain 1hr in | rain 24hr in | rain mn in | humidity % | barometer mb |
| 20260505153034 | 62 | 218 | 0.9 | 7.0 | 0.00 | 0.52 | 0.52 | 92 | 1007.1 |
| 20260505152516 | 62 | 155 | 2.6 | 7.0 | 0.00 | 0.52 | 0.52 | 92 | 1007.2 |
| 20260505152013 | 61 | 170 | 2.6 | 5.2 | 0.00 | 0.52 | 0.52 | 93 | 1007.3 |
| 20260505151519 | 61 | 177 | 0.9 | 3.5 | 0.00 | 0.52 | 0.52 | 93 | 1007.3 |
| 20260505151012 | 60 | 177 | 0.9 | 4.3 | 0.00 | 0.52 | 0.52 | 94 | 1007.4 |
| 20260505150510 | 60 | 132 | 0.0 | 4.3 | 0.00 | 0.52 | 0.52 | 94 | 1007.4 |
| 20260505140510 | 58 | 223 | 2.6 | 10.4 | 0.01 | 0.52 | 0.52 | 93 | 1007.3 |
| 20260505125011 | 57 | 202 | 1.7 | 8.7 | 0.00 | 0.52 | 0.52 | 94 | 1007.3 |
| 20260505124524 | 57 | 220 | 3.5 | 7.0 | 0.00 | 0.52 | 0.52 | 94 | 1007.3 |
| 20260505124011 | 57 | 190 | 2.6 | 9.6 | 0.00 | 0.52 | 0.52 | 94 | 1007.3 |
| 20260505123508 | 57 | 194 | 4.3 | 7.8 | 0.00 | 0.52 | 0.52 | 94 | 1007.2 |
| 20260505123049 | 57 | 163 | 3.5 | 6.1 | 0.00 | 0.52 | 0.52 | 94 | 1007.3 |
| 20260505122510 | 57 | 255 | 1.7 | 5.2 | 0.00 | 0.52 | 0.52 | 94 | 1007.3 |
| 20260505122007 | 57 | 188 | 1.7 | 5.2 | 0.00 | 0.52 | 0.52 | 94 | 1007.3 |
| 20260505121529 | 57 | 228 | 1.7 | 5.2 | 0.00 | 0.52 | 0.52 | 94 | 1007.3 |
| 20260505121007 | 57 | 105 | 0.9 | 5.2 | 0.00 | 0.52 | 0.52 | 94 | 1007.1 |
| 20260505120507 | 57 | 171 | 1.7 | 4.3 | 0.00 | 0.52 | 0.52 | 94 | 1007.2 |
| 20260505120027 | 57 | 214 | 1.7 | 4.3 | 0.00 | 0.52 | 0.52 | 94 | 1007.3 |
| 20260505115510 | 57 | 134 | 0.0 | 2.6 | 0.00 | 0.52 | 0.52 | 93 | 1007.2 |
| 20260505115020 | 57 | 224 | 0.0 | 2.6 | 0.00 | 0.52 | 0.52 | 93 | 1007.2 |
| 20260505114531 | 57 | 209 | 0.9 | 1.7 | 0.00 | 0.52 | 0.52 | 93 | 1007.2 |
| 20260505114010 | 57 | 115 | 0.9 | 3.5 | 0.00 | 0.52 | 0.52 | 93 | 1007.2 |
| 20260505113508 | 57 | 217 | 1.7 | 3.5 | 0.00 | 0.52 | 0.52 | 93 | 1007.2 |
| 20260505113033 | 57 | 219 | 0.9 | 3.5 | 0.00 | 0.52 | 0.52 | 93 | 1007.2 |
| 20260505112507 | 57 | 113 | 0.9 | 3.5 | 0.00 | 0.52 | 0.52 | 93 | 1007.3 |
| 20260505112011 | 57 | 160 | 1.7 | 2.6 | 0.00 | 0.52 | 0.52 | 93 | 1007.4 |
| 20260505111549 | 57 | 223 | 0.9 | 2.6 | 0.00 | 0.52 | 0.52 | 93 | 1007.5 |
| 20260505111008 | 57 | 13 | 0.0 | 1.7 | 0.00 | 0.52 | 0.52 | 93 | 1007.8 |
| 20260505110501 | 57 | 35 | 0.9 | 1.7 | 0.01 | 0.52 | 0.52 | 93 | 1007.9 |
| 20260505102003 | 57 | 309 | 2.6 | 5.2 | 0.16 | 0.52 | 0.52 | 93 | 1008.1 |
| 20260505101532 | 57 | 241 | 0.9 | 2.6 | 0.17 | 0.52 | 0.52 | 92 | 1007.7 |
| 20260505101010 | 57 | 30 | 1.7 | 2.6 | 0.17 | 0.52 | 0.52 | 92 | 1007.4 |
| 20260505100510 | 57 | 305 | 0.0 | 4.3 | 0.18 | 0.51 | 0.51 | 92 | 1007.6 |
| 20260505100012 | 57 | 173 | 1.7 | 4.3 | 0.17 | 0.48 | 0.48 | 92 | 1007.5 |
| 20260505095505 | 57 | 209 | 1.7 | 5.2 | 0.17 | 0.43 | 0.43 | 92 | 1007.6 |
| 20260505095008 | 57 | 88 | 1.7 | 5.2 | 0.23 | 0.43 | 0.43 | 92 | 1007.4 |
| 20260505094502 | 57 | 256 | 0.9 | 2.6 | 0.31 | 0.42 | 0.42 | 92 | 1008.0 |
| 20260505094002 | 57 | 282 | 0.9 | 2.6 | 0.36 | 0.42 | 0.42 | 92 | 1007.6 |
| 20260505093512 | 57 | 115 | 1.7 | 4.3 | 0.34 | 0.40 | 0.40 | 92 | 1007.1 |
| 20260505093028 | 57 | 246 | 1.7 | 4.3 | 0.31 | 0.36 | 0.36 | 92 | 1007.6 |
| 20260505092510 | 57 | 309 | 0.9 | 5.2 | 0.31 | 0.36 | 0.36 | 91 | 1006.8 |
| 20260505092002 | 57 | 342 | 1.7 | 9.6 | 0.31 | 0.36 | 0.36 | 91 | 1006.5 |
| 20260505091507 | 57 | 37 | 5.2 | 9.6 | 0.30 | 0.35 | 0.35 | 91 | 1006.5 |
| 20260505091011 | 58 | 5 | 3.5 | 6.1 | 0.32 | 0.35 | 0.35 | 90 | 1007.6 |
| 20260505090508 | 58 | 341 | 1.7 | 7.0 | 0.31 | 0.33 | 0.33 | 90 | 1008.4 |
| 20260505090012 | 58 | 327 | 1.7 | 7.8 | 0.30 | 0.31 | 0.31 | 89 | 1008.4 |
| 20260505085504 | 58 | 284 | 3.5 | 7.8 | 0.25 | 0.26 | 0.26 | 89 | 1008.4 |
| 20260505085010 | 58 | 306 | 3.5 | 7.8 | 0.20 | 0.20 | 0.20 | 89 | 1008.1 |
| 20260505084513 | 58 | 274 | 4.3 | 7.8 | 0.11 | 0.11 | 0.11 | 88 | 1007.7 |
| 20260505084003 | 58 | 317 | 4.3 | 7.0 | 0.06 | 0.06 | 0.06 | 88 | 1006.5 |
| 20260505083502 | 59 | 342 | 4.3 | 7.0 | 0.06 | 0.06 | 0.06 | 87 | 1006.6 |
| 20260505083033 | 59 | 323 | 0.9 | 7.8 | 0.05 | 0.05 | 0.05 | 86 | 1006.8 |
| 20260505082507 | 59 | 180 | 1.7 | 12.2 | 0.05 | 0.05 | 0.05 | 86 | 1005.9 |
| 20260505082003 | 59 | 188 | 4.3 | 12.2 | 0.05 | 0.05 | 0.05 | 84 | 1006.0 |
| 20260505081507 | 60 | 179 | 2.6 | 10.4 | 0.05 | 0.05 | 0.05 | 84 | 1006.2 |
| 20260505081014 | 60 | 196 | 3.5 | 9.6 | 0.03 | 0.03 | 0.03 | 82 | 1006.3 |
| 20260505080513 | 60 | 209 | 3.5 | 9.6 | 0.02 | 0.02 | 0.02 | 81 | 1006.7 |
| 20260505080035 | 61 | 206 | 2.6 | 6.1 | 0.01 | 0.01 | 0.01 | 79 | 1007.0 |
| 20260505075502 | 61 | 232 | 2.6 | 7.0 | 0.01 | 0.01 | 0.01 | 78 | 1007.1 |
| 20260505075003 | 61 | 253 | 2.6 | 7.0 | 0.00 | 0.00 | 0.00 | 75 | 1007.3 |
| 20260505074527 | 61 | 261 | 2.6 | 7.0 | 0.00 | 0.00 | 0.00 | 75 | 1007.5 |
| 20260505074009 | 61 | 253 | 1.7 | 7.8 | 0.00 | 0.00 | 0.00 | 74 | 1007.1 |
| 20260505073510 | 61 | 300 | 1.7 | 7.8 | 0.00 | 0.00 | 0.00 | 75 | 1007.0 |
| 20260505073021 | 61 | 182 | 3.5 | 12.2 | 0.00 | 0.00 | 0.00 | 74 | 1006.8 |
| 20260505072506 | 62 | 176 | 4.3 | 18.2 | 0.00 | 0.00 | 0.00 | 74 | 1006.5 |
| 20260505072010 | 62 | 198 | 5.2 | 18.2 | 0.00 | 0.00 | 0.00 | 73 | 1006.0 |
| 20260505071503 | 62 | 209 | 7.0 | 13.9 | 0.00 | 0.00 | 0.00 | 72 | 1006.3 |
| 20260505071003 | 62 | 194 | 4.3 | 12.2 | 0.00 | 0.00 | 0.00 | 71 | 1006.5 |
| 20260505070510 | 62 | 182 | 4.3 | 12.2 | 0.00 | 0.00 | 0.00 | 72 | 1006.8 |
| 20260505070028 | 62 | 186 | 5.2 | 10.4 | 0.00 | 0.00 | 0.00 | 72 | 1006.8 |
| 20260505065509 | 62 | 176 | 3.5 | 13.0 | 0.00 | 0.00 | 0.00 | 71 | 1006.9 |
| 20260505065004 | 62 | 197 | 6.1 | 13.0 | 0.00 | 0.00 | 0.00 | 71 | 1007.1 |
| 20260505064511 | 62 | 188 | 4.3 | 9.6 | 0.00 | 0.00 | 0.00 | 71 | 1007.3 |
| 20260505064010 | 62 | 171 | 3.5 | 9.6 | 0.00 | 0.00 | 0.00 | 71 | 1007.4 |
| 20260505063510 | 62 | 208 | 4.3 | 11.3 | 0.00 | 0.00 | 0.00 | 71 | 1007.4 |
| 20260505063018 | 62 | 199 | 5.2 | 11.3 | 0.00 | 0.00 | 0.00 | 71 | 1007.7 |
| 20260505062508 | 62 | 198 | 5.2 | 13.0 | 0.00 | 0.00 | 0.00 | 71 | 1007.7 |
| 20260505062004 | 62 | 169 | 5.2 | 13.0 | 0.00 | 0.00 | 0.00 | 71 | 1007.7 |
| 20260505061504 | 62 | 171 | 7.0 | 12.2 | 0.00 | 0.00 | 0.00 | 72 | 1007.7 |
| 20260505061006 | 62 | 183 | 5.2 | 10.4 | 0.00 | 0.00 | 0.00 | 72 | 1007.8 |
| 20260505060504 | 62 | 160 | 4.3 | 11.3 | 0.00 | 0.00 | 0.00 | 72 | 1007.7 |
| 20260505060029 | 62 | 188 | 5.2 | 11.3 | 0.00 | 0.00 | 0.00 | 72 | 1007.9 |
| 20260505055512 | 62 | 209 | 4.3 | 10.4 | 0.00 | 0.00 | 0.00 | 72 | 1007.9 |
| 20260505055003 | 62 | 137 | 3.5 | 9.6 | 0.00 | 0.00 | 0.00 | 72 | 1008.0 |
| 20260505054511 | 62 | 147 | 5.2 | 9.6 | 0.00 | 0.00 | 0.00 | 72 | 1008.0 |
| 20260505054008 | 62 | 178 | 4.3 | 9.6 | 0.00 | 0.00 | 0.00 | 72 | 1007.9 |
| 20260505053514 | 62 | 194 | 3.5 | 10.4 | 0.00 | 0.00 | 0.00 | 72 | 1007.9 |
| 20260505053026 | 62 | 184 | 4.3 | 10.4 | 0.00 | 0.00 | 0.00 | 72 | 1007.9 |
| 20260505052508 | 62 | 183 | 5.2 | 8.7 | 0.00 | 0.00 | 0.00 | 72 | 1007.9 |
| 20260505052008 | 62 | 191 | 3.5 | 7.8 | 0.00 | 0.00 | 0.00 | 72 | 1007.9 |
| 20260505051519 | 62 | 203 | 4.3 | 12.2 | 0.00 | 0.00 | 0.00 | 72 | 1008.1 |
| 20260505051007 | 62 | 178 | 6.1 | 11.3 | 0.00 | 0.00 | 0.00 | 72 | 1008.2 |
| 20260505050511 | 62 | 218 | 3.5 | 10.4 | 0.00 | 0.00 | 0.00 | 72 | 1008.2 |
| 20260505041528 | 63 | 221 | 2.6 | 9.6 | 0.00 | 0.00 | 0.00 | 70 | 1008.8 |
| 20260505041007 | 63 | 204 | 2.6 | 9.6 | 0.00 | 0.00 | 0.00 | 70 | 1008.8 |
| 20260505040507 | 63 | 198 | 2.6 | 7.8 | 0.00 | 0.00 | 0.00 | 70 | 1008.9 |
| 20260505040022 | 63 | 194 | 2.6 | 7.8 | 0.00 | 0.00 | 0.00 | 70 | 1008.9 |
| 20260505035506 | 63 | 175 | 3.5 | 7.8 | 0.00 | 0.00 | 0.00 | 70 | 1009.0 |
| 20260505035007 | 63 | 175 | 3.5 | 10.4 | 0.00 | 0.00 | 0.00 | 70 | 1009.1 |
| 20260505034507 | 63 | 184 | 1.7 | 10.4 | 0.00 | 0.00 | 0.00 | 70 | 1009.2 |
| 20260505034003 | 63 | 164 | 2.6 | 10.4 | 0.00 | 0.00 | 0.00 | 70 | 1009.2 |
| 20260505033510 | 63 | 185 | 1.7 | 10.4 | 0.00 | 0.00 | 0.00 | 69 | 1009.3 |
| 20260505033031 | 63 | 184 | 2.6 | 7.8 | 0.00 | 0.00 | 0.00 | 69 | 1009.5 |
| 20260505032511 | 63 | 196 | 3.5 | 8.7 | 0.00 | 0.00 | 0.00 | 69 | 1009.4 |
| 20260505032004 | 63 | 184 | 1.7 | 9.6 | 0.00 | 0.00 | 0.00 | 69 | 1009.4 |
| 20260505031515 | 63 | 180 | 4.3 | 9.6 | 0.00 | 0.00 | 0.00 | 69 | 1009.5 |
| 20260505031008 | 63 | 196 | 1.7 | 8.7 | 0.00 | 0.00 | 0.00 | 69 | 1009.3 |
| 20260505030510 | 63 | 244 | 4.3 | 7.8 | 0.00 | 0.00 | 0.00 | 68 | 1009.3 |
| 20260505030019 | 63 | 207 | 2.6 | 8.7 | 0.00 | 0.00 | 0.00 | 68 | 1009.2 |
| 20260505025506 | 64 | 155 | 4.3 | 9.6 | 0.00 | 0.00 | 0.00 | 68 | 1009.1 |
| 20260505025006 | 64 | 250 | 3.5 | 9.6 | 0.00 | 0.00 | 0.00 | 68 | 1009.0 |
| 20260505024536 | 64 | 190 | 5.2 | 13.0 | 0.00 | 0.00 | 0.00 | 68 | 1009.0 |
| 20260505024006 | 64 | 176 | 5.2 | 12.2 | 0.00 | 0.00 | 0.00 | 68 | 1008.9 |
| 20260505023503 | 64 | 122 | 4.3 | 10.4 | 0.00 | 0.00 | 0.00 | 68 | 1008.6 |
| 20260505023024 | 64 | 227 | 4.3 | 11.3 | 0.00 | 0.00 | 0.00 | 68 | 1008.5 |
| 20260505022517 | 64 | 212 | 3.5 | 12.2 | 0.00 | 0.00 | 0.00 | 67 | 1008.5 |
| 20260505022011 | 64 | 166 | 5.2 | 12.2 | 0.00 | 0.00 | 0.00 | 67 | 1008.3 |
| 20260505021514 | 64 | 156 | 3.5 | 12.2 | 0.00 | 0.00 | 0.00 | 67 | 1008.3 |
| 20260505021004 | 64 | 180 | 4.3 | 12.2 | 0.00 | 0.00 | 0.00 | 67 | 1008.2 |
| 20260505020506 | 64 | 239 | 4.3 | 12.2 | 0.00 | 0.00 | 0.00 | 67 | 1008.2 |
| 20260505020015 | 64 | 175 | 6.1 | 12.2 | 0.00 | 0.00 | 0.00 | 67 | 1008.2 |
| 20260505015511 | 64 | 178 | 4.3 | 13.0 | 0.00 | 0.00 | 0.00 | 67 | 1008.2 |
| 20260505015008 | 64 | 159 | 4.3 | 13.0 | 0.00 | 0.00 | 0.00 | 67 | 1008.2 |
| 20260505014525 | 64 | 173 | 5.2 | 11.3 | 0.00 | 0.00 | 0.00 | 66 | 1008.1 |
| 20260505014008 | 65 | 197 | 6.1 | 12.2 | 0.00 | 0.00 | 0.00 | 66 | 1008.1 |
| 20260505013512 | 65 | 201 | 6.1 | 12.2 | 0.00 | 0.00 | 0.00 | 66 | 1008.1 |
| 20260505013027 | 65 | 188 | 5.2 | 13.0 | 0.00 | 0.00 | 0.00 | 66 | 1008.1 |
| 20260505012510 | 65 | 175 | 3.5 | 13.0 | 0.00 | 0.00 | 0.00 | 66 | 1008.1 |
| 20260505012010 | 65 | 182 | 5.2 | 13.0 | 0.00 | 0.00 | 0.00 | 65 | 1008.1 |
| 20260505011511 | 65 | 200 | 6.1 | 12.2 | 0.00 | 0.00 | 0.00 | 65 | 1008.1 |
| 20260505011005 | 65 | 174 | 3.5 | 10.4 | 0.00 | 0.00 | 0.00 | 64 | 1007.9 |
| 20260505010506 | 66 | 137 | 2.6 | 10.4 | 0.00 | 0.00 | 0.00 | 64 | 1008.0 |
| 20260505010016 | 66 | 220 | 6.1 | 10.4 | 0.00 | 0.00 | 0.00 | 63 | 1008.0 |
| 20260505005507 | 66 | 96 | 4.3 | 9.6 | 0.00 | 0.00 | 0.00 | 63 | 1008.0 |
| 20260505005008 | 66 | 203 | 2.6 | 9.6 | 0.00 | 0.00 | 0.00 | 62 | 1008.0 |
| 20260505004522 | 67 | 171 | 5.2 | 13.9 | 0.00 | 0.00 | 0.00 | 61 | 1007.9 |
| 20260505004009 | 67 | 155 | 6.1 | 13.9 | 0.00 | 0.00 | 0.00 | 61 | 1007.9 |
| 20260505003513 | 67 | 184 | 4.3 | 11.3 | 0.00 | 0.00 | 0.00 | 61 | 1008.0 |
| 20260505003023 | 67 | 159 | 6.1 | 15.6 | 0.00 | 0.00 | 0.00 | 60 | 1007.9 |
| 20260505002515 | 68 | 202 | 5.2 | 15.6 | 0.00 | 0.00 | 0.00 | 59 | 1007.8 |
| 20260505002010 | 68 | 197 | 5.2 | 13.9 | 0.00 | 0.00 | 0.00 | 60 | 1007.9 |
| 20260505001534 | 68 | 201 | 7.0 | 13.9 | 0.00 | 0.00 | 0.00 | 59 | 1007.8 |
| 20260505001005 | 69 | 197 | 7.0 | 13.9 | 0.00 | 0.00 | 0.00 | 59 | 1007.9 |
| 20260505000504 | 69 | 205 | 7.0 | 14.8 | 0.00 | 0.00 | 0.00 | 58 | 1007.8 |
| 20260505000027 | 69 | 160 | 7.0 | 14.8 | 0.00 | 0.00 | 0.00 | 58 | 1007.8 |
| 20260504235509 | 70 | 209 | 2.6 | 12.2 | 0.00 | 0.00 | 0.00 | 59 | 1007.7 |
| 20260504235004 | 70 | 200 | 3.5 | 12.2 | 0.00 | 0.00 | 0.00 | 57 | 1007.6 |
| 20260504234520 | 70 | 158 | 5.2 | 11.3 | 0.00 | 0.00 | 0.00 | 57 | 1007.6 |
| 20260504234007 | 70 | 123 | 5.2 | 10.4 | 0.00 | 0.00 | 0.00 | 56 | 1007.7 |
| 20260504233510 | 70 | 211 | 3.5 | 13.9 | 0.00 | 0.00 | 0.00 | 56 | 1007.8 |
| 20260504233024 | 70 | 184 | 5.2 | 13.9 | 0.00 | 0.00 | 0.00 | 55 | 1007.9 |
| 20260504232508 | 70 | 177 | 5.2 | 13.0 | 0.00 | 0.00 | 0.00 | 55 | 1007.9 |
| 20260504232012 | 70 | 220 | 5.2 | 20.9 | 0.00 | 0.00 | 0.00 | 54 | 1007.9 |
| 20260504231530 | 71 | 132 | 7.8 | 20.9 | 0.00 | 0.00 | 0.00 | 54 | 1008.1 |
| 20260504231014 | 71 | 155 | 7.8 | 14.8 | 0.00 | 0.00 | 0.00 | 54 | 1008.1 |
| 20260504230510 | 72 | 178 | 5.2 | 12.2 | 0.00 | 0.00 | 0.00 | 54 | 1008.1 |
| 20260504230027 | 72 | 204 | 6.1 | 14.8 | 0.00 | 0.00 | 0.00 | 53 | 1008.1 |
| 20260504225503 | 72 | 202 | 7.0 | 13.0 | 0.00 | 0.00 | 0.00 | 54 | 1008.2 |
| 20260504225005 | 73 | 190 | 3.5 | 12.2 | 0.00 | 0.00 | 0.00 | 53 | 1008.2 |
| 20260504224517 | 73 | 173 | 3.5 | 9.6 | 0.00 | 0.00 | 0.00 | 54 | 1008.2 |
| 20260504224009 | 73 | 179 | 5.2 | 11.3 | 0.00 | 0.00 | 0.00 | 53 | 1008.3 |
| 20260504223507 | 73 | 207 | 6.1 | 11.3 | 0.00 | 0.00 | 0.00 | 52 | 1008.3 |
| 20260504223020 | 73 | 189 | 2.6 | 12.2 | 0.00 | 0.00 | 0.00 | 53 | 1008.3 |
| 20260504222508 | 72 | 202 | 5.2 | 13.0 | 0.00 | 0.00 | 0.00 | 53 | 1008.5 |
| 20260504222008 | 73 | 184 | 6.1 | 13.0 | 0.00 | 0.00 | 0.00 | 52 | 1008.5 |
| 20260504221526 | 73 | 229 | 7.0 | 13.0 | 0.00 | 0.00 | 0.00 | 51 | 1008.5 |
| 20260504221009 | 73 | 144 | 6.1 | 13.9 | 0.00 | 0.00 | 0.00 | 51 | 1008.7 |
| 20260504220511 | 73 | 159 | 6.1 | 13.9 | 0.00 | 0.00 | 0.00 | 52 | 1008.7 |
| 20260504220016 | 73 | 192 | 7.0 | 15.6 | 0.00 | 0.00 | 0.00 | 51 | 1008.7 |
| 20260504215503 | 73 | 240 | 7.8 | 15.6 | 0.00 | 0.00 | 0.00 | 50 | 1008.7 |
| 20260504215004 | 73 | 207 | 7.8 | 13.0 | 0.00 | 0.00 | 0.00 | 50 | 1008.7 |
| 20260504214510 | 73 | 230 | 6.1 | 13.9 | 0.00 | 0.00 | 0.00 | 52 | 1008.8 |
| 20260504214004 | 73 | 186 | 6.1 | 16.5 | 0.00 | 0.00 | 0.00 | 50 | 1008.9 |
| 20260504213505 | 73 | 223 | 6.1 | 16.5 | 0.00 | 0.00 | 0.00 | 51 | 1008.9 |
| 20260504213012 | 73 | 191 | 7.8 | 17.4 | 0.00 | 0.00 | 0.00 | 48 | 1008.9 |
| 20260504212502 | 74 | 185 | 7.0 | 17.4 | 0.00 | 0.00 | 0.00 | 50 | 1009.0 |
| 20260504212001 | 74 | 211 | 6.1 | 13.9 | 0.00 | 0.00 | 0.00 | 51 | 1009.0 |
| 20260504211502 | 74 | 160 | 5.2 | 17.4 | 0.00 | 0.00 | 0.00 | 50 | 1009.0 |
| 20260504211002 | 74 | 225 | 7.0 | 16.5 | 0.00 | 0.00 | 0.00 | 49 | 1009.1 |
| 20260504210502 | 73 | 216 | 7.0 | 16.5 | 0.00 | 0.00 | 0.00 | 49 | 1009.1 |
| 20260504210008 | 73 | 227 | 9.6 | 16.5 | 0.00 | 0.00 | 0.00 | 50 | 1009.2 |
| 20260504205503 | 74 | 176 | 7.8 | 18.2 | 0.00 | 0.00 | 0.00 | 49 | 1009.1 |
| 20260504205007 | 74 | 150 | 7.8 | 18.2 | 0.00 | 0.00 | 0.00 | 47 | 1009.1 |
| 20260504204510 | 74 | 188 | 8.7 | 13.9 | 0.00 | 0.00 | 0.00 | 50 | 1009.3 |
| 20260504204003 | 74 | 217 | 7.8 | 14.8 | 0.00 | 0.00 | 0.00 | 49 | 1009.4 |
| 20260504203503 | 74 | 209 | 5.2 | 17.4 | 0.00 | 0.00 | 0.00 | 51 | 1009.5 |
| 20260504203020 | 74 | 222 | 7.8 | 17.4 | 0.00 | 0.00 | 0.00 | 51 | 1009.5 |
| 20260504202504 | 75 | 198 | 6.1 | 19.1 | 0.00 | 0.00 | 0.00 | 50 | 1009.5 |
| 20260504202006 | 75 | 228 | 8.7 | 19.1 | 0.00 | 0.00 | 0.00 | 51 | 1009.6 |
| 20260504201512 | 75 | 172 | 5.2 | 13.9 | 0.00 | 0.00 | 0.00 | 51 | 1009.6 |
| 20260504201005 | 74 | 171 | 7.0 | 18.2 | 0.00 | 0.00 | 0.00 | 51 | 1009.8 |
| 20260504200503 | 74 | 207 | 7.8 | 18.2 | 0.00 | 0.00 | 0.00 | 49 | 1009.9 |
| 20260504200015 | 75 | 203 | 4.3 | 18.2 | 0.00 | 0.00 | 0.00 | 48 | 1009.9 |
| 20260504195502 | 75 | 211 | 9.6 | 18.2 | 0.00 | 0.00 | 0.00 | 48 | 1009.8 |
| 20260504195002 | 74 | 192 | 6.1 | 15.6 | 0.00 | 0.00 | 0.00 | 50 | 1009.9 |
| 20260504194525 | 74 | 257 | 6.1 | 15.6 | 0.00 | 0.00 | 0.00 | 49 | 1009.9 |
| 20260504194003 | 74 | 232 | 8.7 | 17.4 | 0.00 | 0.00 | 0.00 | 50 | 1009.9 |
| 20260504193507 | 74 | 126 | 9.6 | 17.4 | 0.00 | 0.00 | 0.00 | 50 | 1009.9 |
| 20260504193018 | 74 | 187 | 6.1 | 14.8 | 0.00 | 0.00 | 0.00 | 51 | 1009.9 |
| 20260504192506 | 74 | 169 | 7.8 | 17.4 | 0.00 | 0.00 | 0.00 | 49 | 1009.9 |
| 20260504192008 | 74 | 167 | 10.4 | 19.1 | 0.00 | 0.00 | 0.00 | 49 | 1010.0 |
| 20260504191515 | 74 | 233 | 9.6 | 19.1 | 0.00 | 0.00 | 0.00 | 49 | 1010.0 |
| 20260504191004 | 74 | 193 | 7.0 | 19.1 | 0.00 | 0.00 | 0.00 | 51 | 1010.0 |
| 20260504190508 | 74 | 234 | 7.8 | 19.1 | 0.00 | 0.00 | 0.00 | 51 | 1010.2 |
| 20260504190003 | 73 | 191 | 7.8 | 16.5 | 0.00 | 0.00 | 0.00 | 50 | 1010.4 |
| 20260504185503 | 73 | 206 | 9.6 | 18.2 | 0.00 | 0.00 | 0.00 | 50 | 1010.3 |
| 20260504185003 | 73 | 219 | 8.7 | 18.2 | 0.00 | 0.00 | 0.00 | 51 | 1010.4 |
| 20260504184511 | 73 | 196 | 7.8 | 18.2 | 0.00 | 0.00 | 0.00 | 49 | 1010.4 |
| 20260504184006 | 73 | 191 | 9.6 | 20.9 | 0.00 | 0.00 | 0.00 | 50 | 1010.6 |
| 20260504183503 | 73 | 221 | 8.7 | 20.9 | 0.00 | 0.00 | 0.00 | 51 | 1010.6 |
| 20260504183012 | 73 | 167 | 5.2 | 15.6 | 0.00 | 0.00 | 0.00 | 54 | 1010.5 |
| 20260504182503 | 73 | 222 | 9.6 | 16.5 | 0.00 | 0.00 | 0.00 | 51 | 1010.6 |
| 20260504182007 | 73 | 217 | 8.7 | 18.2 | 0.00 | 0.00 | 0.00 | 52 | 1010.7 |
| 20260504181522 | 73 | 182 | 7.8 | 18.2 | 0.00 | 0.00 | 0.00 | 52 | 1010.7 |
| 20260504181010 | 73 | 152 | 7.0 | 14.8 | 0.00 | 0.00 | 0.00 | 53 | 1010.7 |
| 20260504180508 | 73 | 193 | 7.8 | 15.6 | 0.00 | 0.00 | 0.00 | 51 | 1010.8 |
| 20260504180021 | 72 | 225 | 7.8 | 15.6 | 0.00 | 0.00 | 0.00 | 50 | 1010.8 |
| 20260504175507 | 72 | 273 | 6.1 | 19.1 | 0.00 | 0.00 | 0.00 | 54 | 1010.9 |
| 20260504175005 | 72 | 180 | 7.0 | 19.1 | 0.00 | 0.00 | 0.00 | 52 | 1010.9 |
| 20260504174506 | 72 | 226 | 8.7 | 20.0 | 0.00 | 0.00 | 0.00 | 50 | 1011.0 |
| 20260504174003 | 71 | 232 | 9.6 | 20.0 | 0.00 | 0.00 | 0.00 | 51 | 1011.0 |
| 20260504173503 | 72 | 242 | 7.8 | 18.2 | 0.00 | 0.00 | 0.00 | 51 | 1011.1 |
| 20260504173016 | 71 | 181 | 10.4 | 18.2 | 0.00 | 0.00 | 0.00 | 52 | 1011.1 |
| 20260504172502 | 71 | 219 | 6.1 | 19.1 | 0.00 | 0.00 | 0.00 | 52 | 1011.1 |
| 20260504172006 | 72 | 142 | 7.0 | 19.1 | 0.00 | 0.00 | 0.00 | 51 | 1011.2 |
| 20260504171518 | 72 | 196 | 7.8 | 16.5 | 0.00 | 0.00 | 0.00 | 50 | 1011.2 |
| 20260504171012 | 71 | 209 | 7.0 | 16.5 | 0.00 | 0.00 | 0.00 | 51 | 1011.4 |
| 20260504170508 | 71 | 231 | 8.7 | 17.4 | 0.00 | 0.00 | 0.00 | 51 | 1011.4 |